createdAt,value
2018-09-22T00:01:56.530Z,11.50
2018-09-22T00:04:25.614Z,11.50
2018-09-22T00:06:55.439Z,11.40
2018-09-22T00:09:23.652Z,11.40
2018-09-22T00:11:52.182Z,11.30
2018-09-22T00:14:21.613Z,11.30
2018-09-22T00:16:50.257Z,11.30
2018-09-22T00:19:18.860Z,11.30
2018-09-22T00:21:48.667Z,11.40
2018-09-22T00:24:16.920Z,11.30
2018-09-22T00:26:45.545Z,11.40
2018-09-22T00:29:14.344Z,11.40
2018-09-22T00:31:43.833Z,11.40
2018-09-22T00:34:12.457Z,11.40
2018-09-22T00:36:40.985Z,11.40
2018-09-22T00:39:10.810Z,11.40
2018-09-22T00:41:39.363Z,11.60
2018-09-22T00:44:08.015Z,11.60
2018-09-22T00:46:37.563Z,11.60
2018-09-22T00:49:06.093Z,11.60
2018-09-22T00:51:34.719Z,11.60
2018-09-22T00:54:03.325Z,11.60
2018-09-22T00:56:37.617Z,11.50
2018-09-22T00:59:06.875Z,11.50
2018-09-22T01:01:35.741Z,11.50
2018-09-22T01:04:04.358Z,11.50
2018-09-22T01:06:33.012Z,11.50
2018-09-22T01:09:07.517Z,11.60
2018-09-22T01:11:36.834Z,11.50
2018-09-22T01:14:06.185Z,11.60
2018-09-22T01:16:34.720Z,11.60
2018-09-22T01:19:03.353Z,11.60
2018-09-22T01:21:31.913Z,11.60
2018-09-22T01:26:35.125Z,11.70
2018-09-22T01:29:03.747Z,11.70
2018-09-22T01:31:33.488Z,11.60
2018-09-22T01:34:03.011Z,11.60
2018-09-22T01:36:31.636Z,11.60
2018-09-22T01:39:00.366Z,11.60
2018-09-22T01:41:29.084Z,11.60
2018-09-22T01:43:57.808Z,11.70
2018-09-22T01:46:26.432Z,11.70
2018-09-22T01:48:55.311Z,11.70
2018-09-22T01:51:23.730Z,11.70
2018-09-22T01:53:52.742Z,11.70
2018-09-22T01:56:21.068Z,11.80
2018-09-22T01:58:49.917Z,11.80
2018-09-22T02:01:18.452Z,11.80
2018-09-22T02:03:47.113Z,11.80
2018-09-22T02:06:15.856Z,11.80
2018-09-22T02:08:44.545Z,11.70
2018-09-22T02:11:14.652Z,11.70
2018-09-22T02:13:42.979Z,11.70
2018-09-22T02:16:11.881Z,11.70
2018-09-22T02:18:40.444Z,11.70
2018-09-22T02:21:10.081Z,11.70
2018-09-22T02:23:38.850Z,11.60
2018-09-22T02:26:07.592Z,11.60
2018-09-22T02:28:36.612Z,11.60
2018-09-22T02:31:10.519Z,11.70
2018-09-22T02:33:39.529Z,11.70
2018-09-22T02:36:08.509Z,11.60
2018-09-22T02:38:37.149Z,11.70
2018-09-22T02:41:05.792Z,11.80
2018-09-22T02:43:34.613Z,11.90
2018-09-22T02:46:09.673Z,11.90
2018-09-22T02:48:37.911Z,12.00
2018-09-22T02:52:09.675Z,11.90
2018-09-22T02:54:39.025Z,12.00
2018-09-22T02:57:07.794Z,12.00
2018-09-22T02:59:42.721Z,12.00
2018-09-22T03:02:11.095Z,12.00
2018-09-22T03:04:39.829Z,12.00
2018-09-22T03:09:43.015Z,12.10
2018-09-22T03:12:11.557Z,12.10
2018-09-22T03:14:40.095Z,12.10
2018-09-22T03:17:08.875Z,12.10
2018-09-22T03:19:38.104Z,12.10
2018-09-22T03:22:06.720Z,12.10
2018-09-22T03:24:35.257Z,12.10
2018-09-22T03:27:09.360Z,12.10
2018-09-22T03:29:38.408Z,12.00
2018-09-22T03:32:12.666Z,12.10
2018-09-22T03:34:41.698Z,12.00
2018-09-22T03:37:10.233Z,12.00
2018-09-22T03:39:39.052Z,12.00
2018-09-22T03:42:07.380Z,12.00
2018-09-22T03:44:36.434Z,12.00
2018-09-22T03:49:51.351Z,12.00
2018-09-22T03:52:20.104Z,12.00
2018-09-22T03:54:48.811Z,12.00
2018-09-22T03:57:17.432Z,12.00
2018-09-22T03:59:46.063Z,12.00
2018-09-22T04:02:20.157Z,12.00
2018-09-22T04:04:52.693Z,11.90
2018-09-22T04:07:20.904Z,11.90
2018-09-22T04:09:49.665Z,11.90
2018-09-22T04:12:21.473Z,11.90
2018-09-22T04:14:50.020Z,11.90
2018-09-22T04:17:18.661Z,11.90
2018-09-22T04:19:47.405Z,11.90
2018-09-22T04:22:15.977Z,11.90
2018-09-22T04:24:44.593Z,11.90
2018-09-22T04:27:13.313Z,11.90
2018-09-22T04:29:44.952Z,11.90
2018-09-22T04:32:13.558Z,11.90
2018-09-22T04:34:42.115Z,11.90
2018-09-22T04:37:10.775Z,11.90
2018-09-22T04:39:39.592Z,11.90
2018-09-22T04:42:20.468Z,11.90
2018-09-22T04:44:49.027Z,12.00
2018-09-22T04:47:17.533Z,12.00
2018-09-22T04:52:20.760Z,12.00
2018-09-22T04:54:49.479Z,12.10
2018-09-22T04:57:18.053Z,12.10
2018-09-22T04:59:46.684Z,12.10
2018-09-22T05:02:15.293Z,12.10
2018-09-22T05:04:43.897Z,12.10
2018-09-22T05:07:12.456Z,12.10
2018-09-22T05:09:41.100Z,12.10
2018-09-22T05:12:09.836Z,12.10
2018-09-22T05:14:44.029Z,12.20
2018-09-22T05:17:13.310Z,12.10
2018-09-22T05:19:41.852Z,12.10
2018-09-22T05:22:11.821Z,12.10
2018-09-22T05:24:40.951Z,12.10
2018-09-22T05:27:09.659Z,12.10
2018-09-22T05:29:46.724Z,12.10
2018-09-22T05:32:15.052Z,12.20
2018-09-22T05:34:43.669Z,12.20
2018-09-22T05:37:14.740Z,12.20
2018-09-22T05:39:42.997Z,12.20
2018-09-22T05:42:11.637Z,12.20
2018-09-22T05:44:40.503Z,12.20
2018-09-22T05:47:15.691Z,12.20
2018-09-22T05:49:46.266Z,12.20
2018-09-22T05:52:14.466Z,12.20
2018-09-22T05:54:43.013Z,12.20
2018-09-22T05:57:11.585Z,12.20
2018-09-22T05:59:43.593Z,12.20
2018-09-22T06:02:11.957Z,12.30
2018-09-22T06:04:40.586Z,12.30
2018-09-22T06:07:10.350Z,12.30
2018-09-22T06:09:39.091Z,12.30
2018-09-22T06:12:07.780Z,12.40
2018-09-22T06:14:36.297Z,12.40
2018-09-22T06:17:04.982Z,12.40
2018-09-22T06:19:33.729Z,12.40
2018-09-22T06:22:02.377Z,12.40
2018-09-22T06:24:36.385Z,12.40
2018-09-22T06:27:05.817Z,12.40
2018-09-22T06:29:34.497Z,12.50
2018-09-22T06:32:03.015Z,12.50
2018-09-22T06:34:31.666Z,12.50
2018-09-22T06:37:00.639Z,12.50
2018-09-22T06:39:28.971Z,12.60
2018-09-22T06:41:57.591Z,12.60
2018-09-22T06:44:26.432Z,12.70
2018-09-22T06:46:54.973Z,12.70
2018-09-22T06:49:23.569Z,12.70
2018-09-22T06:51:52.139Z,12.80
2018-09-22T06:54:22.085Z,12.80
2018-09-22T06:56:51.247Z,12.90
2018-09-22T06:59:19.778Z,12.90
2018-09-22T07:01:49.657Z,13.00
2018-09-22T07:04:18.793Z,13.10
2018-09-22T07:06:47.346Z,13.10
2018-09-22T07:09:19.553Z,13.20
2018-09-22T07:11:47.759Z,13.30
2018-09-22T07:14:16.476Z,13.40
2018-09-22T07:16:45.164Z,13.50
2018-09-22T07:19:13.688Z,13.50
2018-09-22T07:21:47.825Z,13.50
2018-09-22T07:24:16.149Z,13.60
2018-09-22T07:26:45.184Z,13.60
2018-09-22T07:29:14.009Z,13.70
2018-09-22T07:31:42.436Z,13.80
2018-09-22T07:34:11.464Z,13.80
2018-09-22T07:39:14.631Z,13.80
2018-09-22T07:41:43.300Z,13.90
2018-09-22T07:44:11.873Z,13.90
2018-09-22T07:46:45.792Z,14.00
2018-09-22T07:49:14.851Z,14.00
2018-09-22T07:51:43.379Z,14.20
2018-09-22T07:54:12.218Z,14.40
2018-09-22T07:56:40.952Z,14.60
2018-09-22T07:59:09.720Z,14.70
2018-09-22T08:01:38.682Z,14.80
2018-09-22T08:04:07.817Z,14.90
2018-09-22T08:06:36.974Z,15.00
2018-09-22T08:09:08.031Z,15.10
2018-09-22T08:11:39.374Z,15.30
2018-09-22T08:14:08.762Z,15.30
2018-09-22T08:16:37.405Z,15.20
2018-09-22T08:19:06.040Z,15.20
2018-09-22T08:21:35.052Z,15.10
2018-09-22T08:24:08.872Z,15.00
2018-09-22T08:26:42.338Z,15.00
2018-09-22T08:29:11.894Z,15.00
2018-09-22T08:31:41.088Z,15.10
2018-09-22T08:34:09.789Z,15.10
2018-09-22T08:36:38.852Z,15.10
2018-09-22T08:39:09.532Z,15.10
2018-09-22T08:41:38.161Z,15.10
2018-09-22T08:44:07.029Z,15.20
2018-09-22T08:46:35.773Z,15.20
2018-09-22T08:49:04.845Z,15.20
2018-09-22T08:51:33.721Z,15.20
2018-09-22T08:54:02.395Z,15.20
2018-09-22T08:56:30.909Z,15.30
2018-09-22T08:58:59.740Z,15.30
2018-09-22T09:01:28.134Z,15.30
2018-09-22T09:04:03.891Z,15.30
2018-09-22T09:06:35.845Z,15.20
2018-09-22T09:09:07.060Z,15.30
2018-09-22T09:11:35.841Z,15.30
2018-09-22T09:14:04.403Z,15.30
2018-09-22T09:16:33.197Z,15.40
2018-09-22T09:19:01.642Z,15.50
2018-09-22T09:21:30.127Z,15.60
2018-09-22T09:23:58.644Z,15.70
2018-09-22T09:26:27.468Z,15.80
2018-09-22T09:28:56.089Z,15.80
2018-09-22T09:31:24.722Z,15.90
2018-09-22T09:33:53.337Z,16.10
2018-09-22T09:36:22.037Z,16.20
2018-09-22T09:39:00.306Z,16.20
2018-09-22T09:41:29.393Z,16.30
2018-09-22T09:43:57.928Z,16.20
2018-09-22T09:46:26.465Z,16.20
2018-09-22T09:48:55.036Z,16.20
2018-09-22T09:51:23.885Z,16.30
2018-09-22T09:53:52.387Z,16.20
2018-09-22T09:56:20.929Z,16.10
2018-09-22T09:58:49.879Z,16.00
2018-09-22T10:01:18.358Z,15.90
2018-09-22T10:03:46.998Z,16.00
2018-09-22T10:06:15.814Z,16.00
2018-09-22T10:08:44.453Z,16.10
2018-09-22T10:11:13.149Z,16.10
2018-09-22T10:13:41.797Z,16.10
2018-09-22T10:16:10.513Z,16.10
2018-09-22T10:18:39.248Z,16.00
2018-09-22T10:21:13.274Z,16.10
2018-09-22T10:23:42.466Z,16.20
2018-09-22T10:26:11.007Z,16.20
2018-09-22T10:28:39.738Z,16.10
2018-09-22T10:31:08.461Z,16.10
2018-09-22T10:33:37.151Z,16.10
2018-09-22T10:36:05.688Z,16.00
2018-09-22T10:38:34.318Z,16.10
2018-09-22T10:41:02.982Z,16.10
2018-09-22T10:43:31.622Z,16.00
2018-09-22T10:46:00.436Z,15.90
2018-09-22T10:48:30.126Z,15.90
2018-09-22T10:50:59.203Z,16.00
2018-09-22T10:53:27.525Z,16.10
2018-09-22T10:55:56.152Z,16.20
2018-09-22T11:00:59.400Z,16.30
2018-09-22T11:03:28.068Z,16.30
2018-09-22T11:06:08.564Z,16.40
2018-09-22T11:08:37.148Z,16.40
2018-09-22T11:11:05.888Z,16.50
2018-09-22T11:13:37.781Z,16.60
2018-09-22T11:16:12.551Z,16.80
2018-09-22T11:18:41.678Z,16.80
2018-09-22T11:21:10.208Z,16.80
2018-09-22T11:23:39.075Z,16.80
2018-09-22T11:26:07.730Z,16.80
2018-09-22T11:28:36.277Z,16.90
2018-09-22T11:31:05.231Z,16.80
2018-09-22T11:33:33.609Z,16.80
2018-09-22T11:36:02.300Z,16.90
2018-09-22T11:38:31.136Z,16.80
2018-09-22T11:40:59.520Z,16.70
2018-09-22T11:43:28.078Z,16.70
2018-09-22T11:45:56.814Z,16.60
2018-09-22T11:48:25.545Z,16.50
2018-09-22T11:50:53.970Z,16.50
2018-09-22T11:53:22.694Z,16.40
2018-09-22T11:55:57.803Z,16.40
2018-09-22T11:58:27.180Z,16.50
2018-09-22T12:00:55.916Z,16.70
2018-09-22T12:03:26.037Z,16.60
2018-09-22T12:05:54.405Z,16.60
2018-09-22T12:08:22.866Z,16.60
2018-09-22T12:10:51.580Z,16.60
2018-09-22T12:13:20.119Z,16.50
2018-09-22T12:15:49.166Z,16.30
2018-09-22T12:18:17.891Z,16.20
2018-09-22T12:20:46.473Z,16.10
2018-09-22T12:23:15.014Z,16.00
2018-09-22T12:25:43.617Z,15.80
2018-09-22T12:28:12.120Z,15.80
2018-09-22T12:30:40.724Z,15.80
2018-09-22T12:33:09.341Z,15.70
2018-09-22T12:35:37.864Z,15.70
2018-09-22T12:38:07.085Z,15.70
2018-09-22T12:40:35.523Z,15.80
2018-09-22T12:43:04.344Z,15.80
2018-09-22T12:45:33.112Z,15.80
2018-09-22T12:48:01.739Z,15.80
2018-09-22T12:50:30.469Z,15.80
2018-09-22T12:52:59.239Z,15.90
2018-09-22T12:55:27.601Z,15.80
2018-09-22T12:57:56.321Z,15.80
2018-09-22T13:00:24.782Z,15.70
2018-09-22T13:02:53.421Z,15.70
2018-09-22T13:05:22.171Z,15.70
2018-09-22T13:07:50.845Z,15.70
2018-09-22T13:10:20.872Z,15.70
2018-09-22T13:12:49.198Z,15.70
2018-09-22T13:15:17.861Z,15.70
2018-09-22T13:17:46.513Z,15.80
2018-09-22T13:20:15.165Z,15.70
2018-09-22T13:22:44.228Z,15.70
2018-09-22T13:25:12.664Z,15.80
2018-09-22T13:27:41.301Z,15.80
2018-09-22T13:30:10.002Z,15.80
2018-09-22T13:32:39.901Z,15.80
2018-09-22T13:35:08.558Z,15.90
2018-09-22T13:37:37.181Z,15.90
2018-09-22T13:40:06.009Z,16.00
2018-09-22T13:42:35.056Z,16.00
2018-09-22T13:45:03.486Z,16.00
2018-09-22T13:47:32.114Z,15.90
2018-09-22T13:50:00.855Z,15.80
2018-09-22T13:52:29.503Z,15.80
2018-09-22T13:54:58.951Z,15.80
2018-09-22T13:57:28.033Z,15.70
2018-09-22T13:59:56.601Z,15.70
2018-09-22T14:02:25.325Z,15.70
2018-09-22T14:04:53.944Z,15.70
2018-09-22T14:07:22.664Z,15.60
2018-09-22T14:09:51.396Z,15.60
2018-09-22T14:12:20.016Z,15.70
2018-09-22T14:14:48.570Z,15.60
2018-09-22T14:17:17.209Z,15.70
2018-09-22T14:19:45.748Z,15.70
2018-09-22T14:22:14.556Z,15.60
2018-09-22T14:24:44.405Z,15.60
2018-09-22T14:27:13.171Z,15.60
2018-09-22T14:29:41.481Z,15.60
2018-09-22T14:32:10.081Z,15.50
2018-09-22T14:34:38.736Z,15.50
2018-09-22T14:37:07.577Z,15.40
2018-09-22T14:39:36.218Z,15.40
2018-09-22T14:42:04.693Z,15.50
2018-09-22T14:44:33.257Z,15.40
2018-09-22T14:47:02.041Z,15.50
2018-09-22T14:49:30.660Z,15.40
2018-09-22T14:51:59.212Z,15.40
2018-09-22T14:54:27.967Z,15.40
2018-09-22T14:56:56.596Z,15.20
2018-09-22T14:59:25.479Z,15.20
2018-09-22T15:01:54.036Z,15.20
2018-09-22T15:04:22.461Z,15.10
2018-09-22T15:06:51.980Z,15.00
2018-09-22T15:10:46.206Z,15.00
2018-09-22T15:13:15.320Z,15.00
2018-09-22T15:15:43.835Z,14.90
2018-09-22T15:18:12.324Z,14.90
2018-09-22T15:20:41.026Z,14.90
2018-09-22T15:23:09.672Z,14.90
2018-09-22T15:25:38.236Z,14.90
2018-09-22T15:28:06.948Z,14.90
2018-09-22T15:30:35.655Z,14.90
2018-09-22T15:33:04.267Z,14.90
2018-09-22T15:35:32.777Z,14.90
2018-09-22T15:38:01.609Z,14.90
2018-09-22T15:40:30.240Z,14.90
2018-09-22T15:42:58.756Z,14.90
2018-09-22T15:45:28.626Z,14.90
2018-09-22T15:47:57.287Z,14.90
2018-09-22T15:50:25.776Z,14.90
2018-09-22T15:52:54.424Z,14.80
2018-09-22T15:55:23.069Z,14.80
2018-09-22T15:57:52.085Z,14.80
2018-09-22T16:00:20.323Z,14.70
2018-09-22T16:02:53.322Z,14.70
2018-09-22T16:05:22.553Z,14.70
2018-09-22T16:07:51.340Z,14.70
2018-09-22T16:10:20.030Z,14.60
2018-09-22T16:12:48.691Z,14.60
2018-09-22T16:15:21.539Z,14.60
2018-09-22T16:17:50.030Z,14.60
2018-09-22T16:20:18.565Z,14.60
2018-09-22T16:22:47.137Z,14.50
2018-09-22T16:25:16.745Z,14.50
2018-09-22T16:27:45.214Z,14.40
2018-09-22T16:30:13.943Z,14.50
2018-09-22T16:32:42.461Z,14.40
2018-09-22T16:35:11.133Z,14.40
2018-09-22T16:37:39.687Z,14.40
2018-09-22T16:40:08.333Z,14.40
2018-09-22T16:42:36.856Z,14.30
2018-09-22T16:45:05.853Z,14.40
2018-09-22T16:47:34.568Z,14.30
2018-09-22T16:50:03.329Z,14.30
2018-09-22T16:52:31.990Z,14.30
2018-09-22T16:55:00.728Z,14.30
2018-09-22T16:57:29.359Z,14.20
2018-09-22T16:59:58.097Z,14.20
2018-09-22T17:02:26.639Z,14.20
2018-09-22T17:04:55.298Z,14.10
2018-09-22T17:07:25.128Z,14.20
2018-09-22T17:09:54.353Z,14.10
2018-09-22T17:12:23.075Z,14.10
2018-09-22T17:14:51.543Z,14.00
2018-09-22T17:17:20.205Z,14.00
2018-09-22T17:19:49.064Z,14.00
2018-09-22T17:22:17.795Z,14.00
2018-09-22T17:24:46.433Z,13.90
2018-09-22T17:27:14.910Z,13.80
2018-09-22T17:29:43.837Z,13.60
2018-09-22T17:32:13.443Z,13.50
2018-09-22T17:34:42.321Z,13.50
2018-09-22T17:37:10.833Z,13.40
2018-09-22T17:39:39.358Z,13.30
2018-09-22T17:42:08.049Z,13.20
2018-09-22T17:44:37.722Z,13.20
2018-09-22T17:47:06.727Z,13.10
2018-09-22T17:49:35.880Z,13.10
2018-09-22T17:52:05.179Z,13.10
2018-09-22T17:54:33.547Z,13.00
2018-09-22T17:57:02.121Z,13.00
2018-09-22T17:59:30.792Z,13.00
2018-09-22T18:01:59.952Z,13.00
2018-09-22T18:04:28.162Z,12.90
2018-09-22T18:06:56.781Z,12.90
2018-09-22T18:09:25.233Z,12.90
2018-09-22T18:11:53.926Z,12.90
2018-09-22T18:14:22.640Z,12.80
2018-09-22T18:16:51.411Z,12.90
2018-09-22T18:19:19.884Z,12.80
2018-09-22T18:21:48.748Z,12.80
2018-09-22T18:24:17.305Z,12.80
2018-09-22T18:26:45.843Z,12.70
2018-09-22T18:29:14.556Z,12.70
2018-09-22T18:31:43.189Z,12.60
2018-09-22T18:34:11.924Z,12.60
2018-09-22T18:36:40.614Z,12.60
2018-09-22T18:39:09.557Z,12.50
2018-09-22T18:41:37.999Z,12.50
2018-09-22T18:44:06.660Z,12.40
2018-09-22T18:46:35.097Z,12.40
2018-09-22T18:49:03.953Z,12.40
2018-09-22T18:51:33.755Z,12.40
2018-09-22T18:54:02.089Z,12.40
2018-09-22T18:56:30.789Z,12.40
2018-09-22T18:58:59.523Z,12.30
2018-09-22T19:01:29.156Z,12.40
2018-09-22T19:03:57.779Z,12.40
2018-09-22T19:06:26.405Z,12.30
2018-09-22T19:08:55.120Z,12.40
2018-09-22T19:11:23.748Z,12.40
2018-09-22T19:13:56.829Z,12.40
2018-09-22T19:16:30.521Z,12.40
2018-09-22T19:19:01.340Z,12.40
2018-09-22T19:21:35.252Z,12.40
2018-09-22T19:24:07.052Z,12.40
2018-09-22T19:26:40.477Z,12.40
2018-09-22T19:29:19.378Z,12.40
2018-09-22T19:31:58.721Z,12.40
2018-09-22T19:34:31.120Z,12.50
2018-09-22T19:37:03.188Z,12.50
2018-09-22T19:39:37.740Z,12.50
2018-09-22T19:44:15.314Z,12.50
2018-09-22T19:46:50.157Z,12.50
2018-09-22T19:49:24.066Z,12.50
2018-09-22T19:51:59.022Z,12.40
2018-09-22T19:54:27.956Z,12.40
2018-09-22T19:56:56.573Z,12.40
2018-09-22T19:59:25.434Z,12.40
2018-09-22T20:01:54.408Z,12.40
2018-09-22T20:04:22.642Z,12.40
2018-09-22T20:06:51.436Z,12.40
2018-09-22T20:09:20.149Z,12.50
2018-09-22T20:11:48.781Z,12.50
2018-09-22T20:14:17.680Z,12.50
2018-09-22T20:16:46.193Z,12.40
2018-09-22T20:19:15.191Z,12.40
2018-09-22T20:21:45.004Z,12.40
2018-09-22T20:24:13.942Z,12.40
2018-09-22T20:26:42.506Z,12.40
2018-09-22T20:29:11.069Z,12.40
2018-09-22T20:31:39.654Z,12.30
2018-09-22T20:34:08.442Z,12.30
2018-09-22T20:36:36.888Z,12.30
2018-09-22T20:39:08.545Z,12.30
2018-09-22T20:44:12.347Z,12.30
2018-09-22T20:46:46.458Z,12.30
2018-09-22T20:49:15.530Z,12.20
2018-09-22T20:51:44.051Z,12.20
2018-09-22T20:55:37.202Z,12.20
2018-09-22T20:58:05.789Z,12.20
2018-09-22T21:00:34.341Z,12.20
2018-09-22T21:03:02.961Z,12.20
2018-09-22T21:05:31.784Z,12.20
2018-09-22T21:08:00.121Z,12.10
2018-09-22T21:10:28.753Z,12.10
2018-09-22T21:12:57.344Z,12.10
2018-09-22T21:15:26.981Z,12.10
2018-09-22T21:17:55.754Z,12.10
2018-09-22T21:20:25.273Z,12.10
2018-09-22T21:22:53.716Z,12.10
2018-09-22T21:25:22.237Z,12.10
2018-09-22T21:27:50.860Z,12.10
2018-09-22T21:30:19.676Z,12.10
2018-09-22T21:32:49.603Z,12.10
2018-09-22T21:35:19.133Z,12.10
2018-09-22T21:37:47.671Z,12.10
2018-09-22T21:40:16.405Z,12.00
2018-09-22T21:42:45.071Z,12.00
2018-09-22T21:45:13.713Z,12.00
2018-09-22T21:47:42.608Z,12.00
2018-09-22T21:50:11.029Z,12.00
2018-09-22T21:52:39.475Z,12.10
2018-09-22T21:55:08.377Z,12.00
2018-09-22T21:57:36.723Z,12.00
2018-09-22T22:00:05.518Z,12.00
2018-09-22T22:02:34.187Z,12.00
2018-09-22T22:05:02.701Z,12.00
2018-09-22T22:07:31.382Z,11.90
2018-09-22T22:10:00.993Z,11.90
2018-09-22T22:12:29.832Z,11.90
2018-09-22T22:14:59.552Z,11.90
2018-09-22T22:17:27.860Z,11.90
2018-09-22T22:19:56.673Z,11.90
2018-09-22T22:22:26.297Z,11.90
2018-09-22T22:24:55.089Z,11.80
2018-09-22T22:27:23.697Z,11.80
2018-09-22T22:29:52.365Z,11.80
2018-09-22T22:32:20.881Z,11.80
2018-09-22T22:34:49.568Z,11.80
2018-09-22T22:37:18.898Z,11.80
2018-09-22T22:39:48.457Z,11.80
2018-09-22T22:42:17.349Z,11.80
2018-09-22T22:44:46.282Z,11.80
2018-09-22T22:47:16.192Z,11.80
2018-09-22T22:49:44.767Z,11.80
2018-09-22T22:52:13.268Z,11.80
2018-09-22T22:54:42.854Z,11.80
2018-09-22T22:57:11.473Z,11.80
2018-09-22T22:59:40.180Z,11.80
2018-09-22T23:02:08.817Z,11.80
2018-09-22T23:04:37.885Z,11.80
2018-09-22T23:08:35.640Z,11.80
2018-09-22T23:11:04.782Z,11.80
2018-09-22T23:13:33.396Z,11.80
2018-09-22T23:16:02.150Z,11.70
2018-09-22T23:18:30.629Z,11.70
2018-09-22T23:20:59.421Z,11.70
2018-09-22T23:23:27.901Z,11.70
2018-09-22T23:25:56.596Z,11.70
2018-09-22T23:28:25.326Z,11.70
2018-09-22T23:30:53.954Z,11.70
2018-09-22T23:33:22.673Z,11.70
2018-09-22T23:35:51.343Z,11.70
2018-09-22T23:38:19.777Z,11.70
2018-09-22T23:40:48.438Z,11.60
2018-09-22T23:43:17.002Z,11.60
2018-09-22T23:45:45.640Z,11.60
2018-09-22T23:48:14.396Z,11.50
2018-09-22T23:50:42.993Z,11.50
2018-09-22T23:53:11.717Z,11.50
2018-09-22T23:55:41.736Z,11.50
2018-09-22T23:58:10.141Z,11.50
